Time;durP1;ratioP1;P1;durP2;ratioP2;P2;SDS_P1;SDS_P2;PMS_P1;PMS_P2;Temp;Humidity;BMP_temperature;BMP_pressure;BME280_temperature;BME280_humidity;BME280_pressure;Samples;Min_cycle;Max_cycle;Signal;HPM_P1;HPM_P2
2022/03/14 00:00:20;;;;;;;4.45;1.75;;;7.00;99.90;;;;;;4992096;28;20066;-63
2022/03/14 00:02:47;;;;;;;4.50;2.00;;;6.90;99.90;;;;;;4994470;28;20014;-63
2022/03/14 00:05:15;;;;;;;3.03;1.70;;;7.00;99.90;;;;;;4991709;28;20034;-63
2022/03/14 00:07:42;;;;;;;3.00;1.50;;;7.00;99.90;;;;;;4993368;28;20019;-63
2022/03/14 00:10:09;;;;;;;4.45;1.60;;;7.00;99.90;;;;;;4996461;28;20451;-63
2022/03/14 00:12:35;;;;;;;4.65;1.88;;;7.00;99.90;;;;;;4993871;28;20030;-63
2022/03/14 00:15:06;;;;;;;4.75;1.85;;;7.00;99.90;;;;;;4998405;28;20034;-63
2022/03/14 00:17:32;;;;;;;4.40;1.83;;;7.10;99.90;;;;;;4998065;28;20051;-63
2022/03/14 00:19:59;;;;;;;4.55;1.77;;;7.00;99.90;;;;;;4992979;28;20077;-63
2022/03/14 00:22:25;;;;;;;5.85;1.70;;;7.00;99.90;;;;;;5000321;28;20027;-63
2022/03/14 00:24:51;;;;;;;4.72;1.73;;;7.00;99.90;;;;;;4998277;28;20054;-63
2022/03/14 00:27:17;;;;;;;3.75;1.70;;;7.00;99.90;;;;;;4997603;28;20050;-63
2022/03/14 00:29:43;;;;;;;4.75;1.90;;;7.00;99.90;;;;;;4998093;28;20026;-63
2022/03/14 00:32:09;;;;;;;5.28;1.70;;;7.00;99.90;;;;;;4994753;28;20502;-63
2022/03/14 00:34:35;;;;;;;3.53;1.50;;;7.10;99.90;;;;;;4998001;28;20419;-63
2022/03/14 00:37:01;;;;;;;3.00;1.77;;;7.00;99.90;;;;;;4998548;28;20164;-62
2022/03/14 00:39:27;;;;;;;4.22;1.70;;;6.90;99.90;;;;;;4997923;28;20132;-63
2022/03/14 00:41:53;;;;;;;2.53;1.30;;;7.00;99.90;;;;;;4997188;28;20128;-63
2022/03/14 00:44:19;;;;;;;4.97;1.73;;;6.90;99.90;;;;;;4995616;28;20034;-63
2022/03/14 00:46:45;;;;;;;5.00;1.75;;;7.00;99.90;;;;;;4995742;28;20038;-63
2022/03/14 00:49:11;;;;;;;4.47;1.70;;;6.90;99.90;;;;;;4997664;28;20029;-63
2022/03/14 00:51:38;;;;;;;4.18;1.60;;;6.90;99.90;;;;;;4996201;28;20038;-62
2022/03/14 00:54:04;;;;;;;3.05;1.60;;;7.00;99.90;;;;;;4997399;28;20149;-63
2022/03/14 00:56:30;;;;;;;5.07;1.70;;;7.00;99.90;;;;;;4996660;28;20068;-62
2022/03/14 00:58:59;;;;;;;4.18;1.50;;;6.90;99.90;;;;;;4993230;28;20031;-63
2022/03/14 01:01:26;;;;;;;3.38;1.35;;;6.90;99.90;;;;;;4999133;28;20038;-63
2022/03/14 01:03:52;;;;;;;3.33;1.45;;;7.00;99.90;;;;;;4997092;28;20030;-63
2022/03/14 01:06:18;;;;;;;5.85;1.75;;;6.90;99.90;;;;;;4997268;28;20033;-63
2022/03/14 01:08:43;;;;;;;5.05;1.70;;;6.90;99.90;;;;;;4997084;28;20141;-63
2022/03/14 01:11:09;;;;;;;4.25;1.60;;;7.00;99.90;;;;;;4993495;28;20030;-63
2022/03/14 01:13:35;;;;;;;3.97;1.85;;;6.90;99.90;;;;;;4997613;28;20117;-63
2022/03/14 01:16:01;;;;;;;4.25;1.42;;;7.00;99.90;;;;;;4997699;28;20515;-63
2022/03/14 01:18:27;;;;;;;5.53;1.67;;;7.00;99.90;;;;;;4995532;28;20052;-63
2022/03/14 01:20:53;;;;;;;3.83;1.60;;;7.10;99.90;;;;;;4996961;28;20487;-63
2022/03/14 01:23:19;;;;;;;5.18;1.63;;;7.00;99.90;;;;;;4994763;28;20023;-63
2022/03/14 01:25:45;;;;;;;4.70;1.70;;;7.10;99.90;;;;;;4975973;28;20038;-63
2022/03/14 01:28:12;;;;;;;3.53;1.42;;;7.10;99.90;;;;;;4996578;28;20081;-63
2022/03/14 01:30:39;;;;;;;3.53;1.52;;;7.10;99.90;;;;;;4995687;28;20069;-63
2022/03/14 01:33:05;;;;;;;3.78;1.63;;;7.10;99.90;;;;;;4996766;28;20031;-63
2022/03/14 01:35:30;;;;;;;3.67;1.63;;;7.00;99.90;;;;;;4996302;28;20562;-63
2022/03/14 01:37:57;;;;;;;5.88;1.90;;;7.00;99.90;;;;;;4992280;28;20037;-64
2022/03/14 01:40:24;;;;;;;4.22;1.90;;;7.00;99.90;;;;;;4997465;28;20065;-63
2022/03/14 01:42:50;;;;;;;4.78;1.70;;;7.00;99.90;;;;;;4996484;28;20388;-63
2022/03/14 01:45:17;;;;;;;4.53;1.83;;;6.90;99.90;;;;;;4996912;28;20038;-63
2022/03/14 01:47:44;;;;;;;5.50;2.15;;;6.90;99.90;;;;;;4996428;28;20034;-63
2022/03/14 01:50:12;;;;;;;7.72;1.98;;;6.90;99.90;;;;;;4993323;28;20064;-63
2022/03/14 01:52:38;;;;;;;6.00;1.63;;;6.90;99.90;;;;;;4996290;28;20054;-63
2022/03/14 01:55:05;;;;;;;3.38;1.58;;;6.90;99.90;;;;;;5008953;28;20034;-63
2022/03/14 01:57:33;;;;;;;3.33;1.77;;;6.90;99.90;;;;;;4991549;28;20391;-63
2022/03/14 01:59:59;;;;;;;5.68;1.83;;;6.90;99.90;;;;;;4996198;28;20034;-63
2022/03/14 02:02:25;;;;;;;4.82;2.10;;;6.90;99.90;;;;;;4995532;28;20108;-63
2022/03/14 02:04:51;;;;;;;4.63;1.88;;;6.90;99.90;;;;;;4992970;28;24370;-63
2022/03/14 02:07:17;;;;;;;4.82;1.90;;;6.80;99.90;;;;;;4998285;28;20102;-63
2022/03/14 02:09:44;;;;;;;6.30;2.30;;;6.90;99.90;;;;;;4994685;28;20026;-63
2022/03/14 02:12:10;;;;;;;3.97;1.80;;;6.90;99.90;;;;;;4995839;28;20568;-63
2022/03/14 02:14:39;;;;;;;5.05;1.52;;;6.90;99.90;;;;;;4995850;28;20398;-63
2022/03/14 02:17:13;;;;;;;4.68;1.77;;;6.90;99.90;;;;;;4990730;28;20032;-63
2022/03/14 02:19:39;;;;;;;;;;;6.80;99.90;;;;;;4996038;28;20031;-63
2022/03/14 02:22:11;;;;;;;4.05;1.75;;;6.80;99.90;;;;;;4997015;28;19913;-63
2022/03/14 02:24:37;;;;;;;6.97;1.70;;;6.80;99.90;;;;;;4995803;28;20034;-63
2022/03/14 02:27:04;;;;;;;5.78;1.77;;;6.70;99.90;;;;;;4995896;28;20041;-63
2022/03/14 02:29:29;;;;;;;6.38;1.92;;;6.70;99.90;;;;;;4994899;28;20049;-63
2022/03/14 02:31:55;;;;;;;5.13;2.08;;;6.70;99.90;;;;;;4992431;28;20061;-63
2022/03/14 02:34:21;;;;;;;4.68;1.70;;;6.70;99.90;;;;;;4997418;28;20030;-63
2022/03/14 02:36:47;;;;;;;4.32;1.50;;;6.70;99.90;;;;;;4993541;28;20038;-64
2022/03/14 02:39:12;;;;;;;4.70;1.70;;;6.60;99.90;;;;;;4995755;28;20057;-63
2022/03/14 02:41:39;;;;;;;4.40;1.65;;;6.60;99.90;;;;;;4995275;28;20054;-63
2022/03/14 02:44:06;;;;;;;5.13;1.63;;;6.60;99.90;;;;;;4991541;28;20030;-63
2022/03/14 02:46:40;;;;;;;4.93;2.05;;;6.60;99.90;;;;;;4996646;28;20030;-63
2022/03/14 02:49:09;;;;;;;5.45;1.58;;;6.60;99.90;;;;;;4996539;28;20030;-64
2022/03/14 02:51:40;;;;;;;3.30;1.80;;;6.50;99.90;;;;;;4995413;28;20026;-63
2022/03/14 02:54:10;;;;;;;3.35;1.52;;;6.60;99.90;;;;;;4995057;28;20093;-64
2022/03/14 02:56:40;;;;;;;6.78;2.10;;;6.50;99.90;;;;;;4993955;28;20036;-63
2022/03/14 02:59:07;;;;;;;4.70;1.50;;;6.50;99.90;;;;;;4991327;28;20030;-63
2022/03/14 03:01:34;;;;;;;4.03;1.67;;;6.60;99.90;;;;;;4996350;28;20022;-64
2022/03/14 03:03:59;;;;;;;6.10;1.77;;;6.50;99.90;;;;;;4992774;28;20049;-63
2022/03/14 03:06:25;;;;;;;5.30;1.65;;;6.50;99.90;;;;;;4994844;28;20030;-63
2022/03/14 03:08:52;;;;;;;5.07;1.75;;;6.50;99.90;;;;;;4994812;28;20037;-63
2022/03/14 03:11:19;;;;;;;4.20;1.60;;;6.50;99.90;;;;;;4993156;28;20065;-63
2022/03/14 03:13:47;;;;;;;4.95;1.55;;;6.50;99.90;;;;;;4993452;28;20051;-63
2022/03/14 03:16:14;;;;;;;4.45;1.95;;;6.50;99.90;;;;;;4995094;28;20105;-63
2022/03/14 03:18:40;;;;;;;5.05;1.80;;;6.50;99.90;;;;;;4995183;28;20057;-63
2022/03/14 03:21:06;;;;;;;3.55;1.70;;;6.50;99.90;;;;;;4994505;28;20423;-63
2022/03/14 03:23:35;;;;;;;4.20;1.50;;;6.60;99.90;;;;;;4994477;28;20022;-63
2022/03/14 03:26:02;;;;;;;4.53;1.80;;;6.50;99.90;;;;;;4974084;28;20471;-63
2022/03/14 03:28:28;;;;;;;3.97;1.70;;;6.50;99.90;;;;;;4996990;28;20042;-63
2022/03/14 03:30:54;;;;;;;3.45;1.50;;;6.40;99.90;;;;;;4994683;28;20031;-63
2022/03/14 03:33:20;;;;;;;3.00;1.80;;;6.50;99.90;;;;;;4995094;28;20089;-63
2022/03/14 03:35:45;;;;;;;3.83;1.77;;;6.60;99.90;;;;;;4993173;28;20438;-62
2022/03/14 03:38:11;;;;;;;3.25;1.60;;;6.60;99.90;;;;;;4991637;28;20058;-63
2022/03/14 03:40:37;;;;;;;4.65;1.60;;;6.50;99.90;;;;;;4994642;28;20093;-63
2022/03/14 03:43:02;;;;;;;2.63;1.73;;;6.50;99.90;;;;;;4995364;28;20368;-63
2022/03/14 03:45:28;;;;;;;3.47;1.70;;;6.50;99.90;;;;;;4994697;28;20030;-63
2022/03/14 03:47:54;;;;;;;2.42;1.30;;;6.40;99.90;;;;;;4997151;28;20022;-63
2022/03/14 03:50:20;;;;;;;2.78;1.30;;;6.40;99.90;;;;;;4996420;28;20057;-63
2022/03/14 03:52:46;;;;;;;2.78;1.52;;;6.40;99.90;;;;;;4996878;28;20061;-63
2022/03/14 03:55:12;;;;;;;2.58;1.30;;;6.40;99.90;;;;;;4998603;28;20061;-63
2022/03/14 03:57:38;;;;;;;3.95;1.60;;;6.40;99.90;;;;;;4998727;28;20027;-63
2022/03/14 04:00:06;;;;;;;3.67;1.70;;;6.30;99.90;;;;;;4998450;28;20045;-63
2022/03/14 04:02:36;;;;;;;4.18;1.42;;;6.20;99.90;;;;;;4997924;28;20517;-63
2022/03/14 04:05:02;;;;;;;3.25;1.50;;;6.30;99.90;;;;;;4977335;28;20450;-63
2022/03/14 04:07:31;;;;;;;2.33;1.40;;;6.20;99.90;;;;;;5007325;28;20475;-62
2022/03/14 04:09:57;;;;;;;3.72;1.45;;;6.20;99.90;;;;;;4998788;28;20061;-63
2022/03/14 04:12:26;;;;;;;3.55;1.40;;;6.20;99.90;;;;;;4998340;28;20042;-63
2022/03/14 04:14:52;;;;;;;2.28;1.42;;;6.10;99.90;;;;;;4996825;28;20026;-63
2022/03/14 04:17:19;;;;;;;5.18;2.03;;;6.20;99.90;;;;;;4996341;28;20512;-63
2022/03/14 04:19:45;;;;;;;3.60;1.65;;;6.10;99.90;;;;;;4995952;28;20034;-63
2022/03/14 04:22:15;;;;;;;1.92;1.30;;;6.10;99.90;;;;;;4999818;28;20563;-63
2022/03/14 04:24:41;;;;;;;2.10;1.70;;;6.10;99.90;;;;;;4997974;28;20038;-63
2022/03/14 04:27:08;;;;;;;2.15;1.40;;;6.10;99.90;;;;;;4997974;28;20030;-63
2022/03/14 04:29:34;;;;;;;2.50;1.40;;;6.00;99.90;;;;;;4997713;28;20087;-63
2022/03/14 04:32:00;;;;;;;2.33;1.60;;;6.00;99.90;;;;;;4993051;28;20022;-63
2022/03/14 04:34:26;;;;;;;2.75;1.58;;;6.00;99.90;;;;;;4999157;28;20030;-63
2022/03/14 04:36:51;;;;;;;2.30;1.60;;;6.10;99.90;;;;;;4998249;28;20168;-62
2022/03/14 04:39:18;;;;;;;5.43;1.98;;;6.10;99.90;;;;;;4997617;28;20551;-63
2022/03/14 04:41:44;;;;;;;2.00;1.50;;;6.00;99.90;;;;;;4997635;28;20461;-63
2022/03/14 04:44:10;;;;;;;2.47;1.52;;;6.00;99.90;;;;;;4992822;28;20241;-63
2022/03/14 04:46:36;;;;;;;4.68;1.90;;;6.00;99.90;;;;;;4998270;28;20377;-63
2022/03/14 04:49:08;;;;;;;2.22;1.65;;;6.00;99.90;;;;;;4996853;28;20487;-63
2022/03/14 04:51:36;;;;;;;4.82;1.70;;;6.10;99.90;;;;;;4997387;28;20038;-63
2022/03/14 04:54:02;;;;;;;2.13;1.58;;;6.00;99.90;;;;;;4996045;28;20038;-63
2022/03/14 04:56:28;;;;;;;2.50;1.77;;;5.90;99.90;;;;;;4996519;28;20452;-63
2022/03/14 04:58:53;;;;;;;3.33;1.92;;;6.00;99.90;;;;;;4993619;28;20113;-63
2022/03/14 05:01:23;;;;;;;3.80;2.08;;;6.00;99.90;;;;;;4999835;28;20065;-63
2022/03/14 05:03:52;;;;;;;2.03;1.83;;;6.00;99.90;;;;;;4996748;28;20054;-63
2022/03/14 05:06:21;;;;;;;2.92;1.83;;;6.10;99.90;;;;;;4997041;28;20110;-63
2022/03/14 05:08:47;;;;;;;2.45;1.90;;;6.10;99.90;;;;;;4997250;28;20084;-63
2022/03/14 05:11:14;;;;;;;4.05;2.10;;;6.10;99.90;;;;;;4993110;28;20051;-63
2022/03/14 05:13:41;;;;;;;3.00;2.08;;;6.00;99.90;;;;;;4996794;28;20038;-63
2022/03/14 05:16:07;;;;;;;3.58;2.60;;;6.00;99.90;;;;;;4998234;28;20030;-63
2022/03/14 05:18:34;;;;;;;5.15;3.17;;;5.90;99.90;;;;;;4997329;28;20537;-63
2022/03/14 05:21:01;;;;;;;4.00;2.65;;;6.00;99.90;;;;;;4996889;28;20042;-63
2022/03/14 05:23:28;;;;;;;4.72;2.50;;;6.00;99.90;;;;;;4994596;28;20390;-63
2022/03/14 05:25:54;;;;;;;4.05;2.97;;;6.10;99.90;;;;;;4993658;28;20039;-63
2022/03/14 05:28:20;;;;;;;5.15;3.20;;;6.10;99.90;;;;;;4997746;28;20030;-63
2022/03/14 05:30:46;;;;;;;5.72;3.00;;;6.00;99.90;;;;;;4996452;28;20092;-63
2022/03/14 05:33:11;;;;;;;4.07;2.75;;;5.90;99.90;;;;;;4995311;28;20084;-62
2022/03/14 05:35:37;;;;;;;5.65;2.90;;;6.00;99.90;;;;;;4997095;28;20034;-63
2022/03/14 05:38:03;;;;;;;5.50;3.38;;;6.00;99.90;;;;;;4992585;28;20038;-63
2022/03/14 05:40:30;;;;;;;3.72;2.60;;;5.90;99.90;;;;;;4998678;28;20144;-63
2022/03/14 05:42:56;;;;;;;4.18;2.63;;;5.90;99.90;;;;;;4996695;28;20046;-63
2022/03/14 05:45:22;;;;;;;3.95;2.55;;;5.80;99.90;;;;;;4996191;28;20042;-63
2022/03/14 05:47:48;;;;;;;3.92;2.65;;;5.80;99.90;;;;;;4996519;28;20029;-62
2022/03/14 05:50:14;;;;;;;4.53;2.50;;;5.80;99.90;;;;;;4992482;28;20069;-63
2022/03/14 05:52:41;;;;;;;3.35;2.40;;;5.80;99.90;;;;;;4995969;28;20030;-63
2022/03/14 05:55:08;;;;;;;5.15;2.58;;;5.70;99.90;;;;;;4997399;28;20038;-63
2022/03/14 05:57:35;;;;;;;6.45;2.90;;;5.70;99.90;;;;;;4996350;28;20510;-63
2022/03/14 06:00:02;;;;;;;5.75;3.13;;;5.70;99.90;;;;;;4996292;28;20053;-63
2022/03/14 06:02:28;;;;;;;5.18;2.70;;;5.70;99.90;;;;;;4993870;28;20483;-63
2022/03/14 06:04:54;;;;;;;8.23;2.50;;;5.70;99.90;;;;;;4991750;28;20033;-63
2022/03/14 06:07:21;;;;;;;4.65;3.05;;;5.70;99.90;;;;;;4998098;28;20026;-62
2022/03/14 06:09:50;;;;;;;6.15;2.70;;;5.70;99.90;;;;;;4995128;28;20038;-63
2022/03/14 06:12:30;;;;;;;5.35;3.13;;;5.70;99.90;;;;;;4994596;28;20462;-63
2022/03/14 06:14:59;;;;;;;6.00;3.15;;;5.70;99.90;;;;;;4995760;28;20453;-62
2022/03/14 06:17:25;;;;;;;7.15;3.70;;;5.70;99.90;;;;;;4994342;28;20041;-62
2022/03/14 06:19:52;;;;;;;6.22;3.20;;;5.60;99.90;;;;;;4993288;28;20038;-63
2022/03/14 06:22:19;;;;;;;4.93;2.92;;;5.60;99.90;;;;;;4997896;28;20030;-63
2022/03/14 06:24:47;;;;;;;4.95;2.80;;;5.60;99.90;;;;;;4995736;28;20403;-63
2022/03/14 06:27:14;;;;;;;6.30;2.60;;;5.60;99.90;;;;;;4995701;28;20106;-63
2022/03/14 06:29:40;;;;;;;5.75;2.70;;;5.60;99.90;;;;;;4994203;28;20037;-62
2022/03/14 06:32:06;;;;;;;6.60;2.85;;;5.60;99.90;;;;;;4991587;28;20033;-63
2022/03/14 06:34:32;;;;;;;5.00;2.85;;;5.60;99.90;;;;;;4997319;28;20061;-63
2022/03/14 06:36:57;;;;;;;7.93;2.90;;;5.60;99.90;;;;;;4995679;28;20049;-63
2022/03/14 06:39:24;;;;;;;4.40;2.80;;;5.60;99.90;;;;;;4995426;28;20061;-63
2022/03/14 06:41:50;;;;;;;4.35;2.40;;;5.60;99.90;;;;;;4994373;28;20080;-63
2022/03/14 06:44:17;;;;;;;5.57;2.50;;;5.70;99.90;;;;;;4992430;28;20480;-63
2022/03/14 06:46:43;;;;;;;6.00;2.47;;;5.70;99.90;;;;;;4994489;28;20097;-62
2022/03/14 06:49:10;;;;;;;5.22;2.60;;;5.70;99.90;;;;;;4996788;28;20035;-63
2022/03/14 06:51:37;;;;;;;5.05;2.40;;;5.70;99.90;;;;;;4994429;28;20439;-63
2022/03/14 06:54:02;;;;;;;4.10;2.33;;;5.70;99.90;;;;;;4995156;28;20084;-62
2022/03/14 06:56:28;;;;;;;6.55;2.97;;;5.70;99.90;;;;;;4994301;28;20025;-64
2022/03/14 06:58:54;;;;;;;5.35;2.50;;;5.60;99.90;;;;;;4991832;28;20162;-64
2022/03/14 07:01:22;;;;;;;7.25;2.50;;;5.70;99.90;;;;;;4997141;28;20097;-63
2022/03/14 07:03:48;;;;;;;4.85;2.20;;;5.60;99.90;;;;;;4995049;28;20403;-63
2022/03/14 07:06:13;;;;;;;4.78;2.25;;;5.60;99.90;;;;;;4995175;28;20105;-64
2022/03/14 07:08:39;;;;;;;3.30;2.28;;;5.60;99.90;;;;;;4993328;28;20483;-63
2022/03/14 07:11:05;;;;;;;5.18;2.15;;;5.50;99.90;;;;;;4991324;28;20033;-61
2022/03/14 07:13:31;;;;;;;2.72;2.00;;;5.50;99.90;;;;;;4996574;28;20451;-63
2022/03/14 07:15:56;;;;;;;3.80;2.03;;;5.60;99.90;;;;;;4994761;28;20028;-63
2022/03/14 07:18:22;;;;;;;3.15;2.20;;;5.70;99.90;;;;;;4993764;28;20460;-64
2022/03/14 07:20:48;;;;;;;3.97;1.98;;;5.60;99.90;;;;;;4993001;28;20072;-62
2022/03/14 07:23:13;;;;;;;2.65;1.65;;;5.70;99.90;;;;;;4992066;28;20479;-63
2022/03/14 07:25:39;;;;;;;4.88;2.35;;;5.70;99.90;;;;;;4995003;28;20026;-62
2022/03/14 07:28:08;;;;;;;2.75;1.83;;;5.70;99.90;;;;;;4994119;28;20418;-61
2022/03/14 07:30:38;;;;;;;5.57;4.18;;;5.80;99.90;;;;;;4993185;28;20030;-63
2022/03/14 07:33:04;;;;;;;3.53;2.10;;;5.80;99.90;;;;;;4994748;28;20034;-62
2022/03/14 07:35:30;;;;;;;3.72;2.05;;;5.90;99.90;;;;;;4993119;28;20099;-62
2022/03/14 07:37:56;;;;;;;2.20;1.90;;;5.90;99.90;;;;;;4991314;28;20034;-61
2022/03/14 07:40:22;;;;;;;2.60;1.60;;;6.00;99.90;;;;;;4991927;28;20043;-62
2022/03/14 07:42:50;;;;;;;3.30;1.67;;;6.10;99.90;;;;;;4990238;28;20065;-63
2022/03/14 07:45:20;;;;;;;4.38;3.00;;;6.20;99.90;;;;;;4994317;28;20081;-64
2022/03/14 07:47:45;;;;;;;3.70;3.00;;;6.30;99.90;;;;;;4993031;28;20026;-63
2022/03/14 07:50:14;;;;;;;4.35;3.08;;;6.20;99.90;;;;;;4991281;28;20160;-63
2022/03/14 07:52:40;;;;;;;6.15;3.15;;;6.30;99.90;;;;;;4994925;28;20034;-64
2022/03/14 07:55:09;;;;;;;5.20;2.75;;;6.30;99.90;;;;;;4995383;28;20025;-64
2022/03/14 07:57:36;;;;;;;6.03;4.05;;;6.40;99.90;;;;;;4993871;28;20419;-64
2022/03/14 08:00:06;;;;;;;5.65;3.03;;;6.40;99.90;;;;;;4993365;28;20057;-64
2022/03/14 08:02:32;;;;;;;8.65;4.97;;;6.50;99.90;;;;;;4993861;28;20048;-63
2022/03/14 08:04:57;;;;;;;6.25;3.50;;;6.70;99.90;;;;;;4990923;28;20483;-63
2022/03/14 08:07:23;;;;;;;4.55;2.90;;;6.80;99.90;;;;;;4996994;28;20046;-63
2022/03/14 08:09:50;;;;;;;4.10;2.72;;;6.70;99.90;;;;;;4992626;28;20069;-64
2022/03/14 08:12:16;;;;;;;5.80;3.63;;;7.00;99.90;;;;;;4994056;28;20096;-63
2022/03/14 08:14:42;;;;;;;5.90;3.65;;;7.20;99.90;;;;;;4993914;28;20026;-63
2022/03/14 08:17:08;;;;;;;4.53;2.67;;;7.20;99.90;;;;;;4990378;28;20056;-64
2022/03/14 08:19:34;;;;;;;3.78;2.55;;;7.40;99.90;;;;;;4994899;28;20050;-63
2022/03/14 08:22:02;;;;;;;3.25;1.85;;;7.50;99.90;;;;;;4994637;28;20491;-64
2022/03/14 08:24:28;;;;;;;4.18;2.65;;;7.40;99.90;;;;;;4994278;28;20101;-63
2022/03/14 08:26:53;;;;;;;5.63;3.15;;;7.40;99.90;;;;;;4992483;28;20037;-63
2022/03/14 08:29:19;;;;;;;3.22;1.95;;;7.40;99.90;;;;;;4992119;28;20486;-64
2022/03/14 08:31:45;;;;;;;4.28;2.20;;;7.40;99.90;;;;;;4992543;28;20423;-64
2022/03/14 08:34:11;;;;;;;2.67;1.88;;;7.40;99.90;;;;;;4998748;28;20089;-63
2022/03/14 08:36:40;;;;;;;3.10;1.92;;;7.40;99.90;;;;;;4996920;28;20045;-64
2022/03/14 08:39:07;;;;;;;4.43;2.35;;;7.50;99.90;;;;;;4993808;28;20035;-63
2022/03/14 08:41:34;;;;;;;3.42;1.90;;;7.60;99.90;;;;;;4991903;28;20046;-64
2022/03/14 08:44:00;;;;;;;4.13;2.38;;;7.70;99.90;;;;;;4993283;28;20523;-64
2022/03/14 08:46:26;;;;;;;3.60;2.33;;;7.70;99.90;;;;;;4999917;28;20069;-64
2022/03/14 08:48:51;;;;;;;4.72;2.65;;;8.00;99.90;;;;;;4996581;28;20034;-64
2022/03/14 08:51:17;;;;;;;4.63;2.75;;;8.20;99.90;;;;;;4997424;28;20022;-64
2022/03/14 08:53:43;;;;;;;4.78;2.83;;;8.30;99.90;;;;;;4980949;28;20038;-64
2022/03/14 08:56:10;;;;;;;6.13;3.60;;;8.40;99.90;;;;;;4994261;28;20025;-64
2022/03/14 08:58:36;;;;;;;11.00;6.68;;;8.50;99.90;;;;;;4997624;28;20044;-64
2022/03/14 09:01:01;;;;;;;5.10;3.05;;;8.80;99.90;;;;;;4997840;28;20463;-64
2022/03/14 09:03:28;;;;;;;3.80;2.53;;;9.00;99.90;;;;;;4997420;28;20032;-65
2022/03/14 09:05:56;;;;;;;7.55;2.72;;;9.50;99.90;;;;;;4995679;28;20026;-64
2022/03/14 09:08:26;;;;;;;3.97;2.47;;;10.10;99.90;;;;;;4995360;28;20434;-64
2022/03/14 09:10:53;;;;;;;3.95;2.40;;;10.70;99.90;;;;;;4993635;28;20623;-64
2022/03/14 09:13:23;;;;;;;6.60;3.65;;;9.90;99.90;;;;;;4998909;28;20046;-64
2022/03/14 09:15:50;;;;;;;8.68;3.55;;;9.50;99.90;;;;;;4997127;28;20098;-64
2022/03/14 09:18:16;;;;;;;5.88;3.20;;;9.90;99.90;;;;;;4995948;28;20036;-64
2022/03/14 09:20:42;;;;;;;6.43;3.63;;;10.00;99.90;;;;;;4996883;28;20061;-64
2022/03/14 09:23:09;;;;;;;7.10;4.47;;;9.60;99.90;;;;;;4992817;28;20503;-64
2022/03/14 09:25:35;;;;;;;7.13;3.47;;;9.60;99.90;;;;;;4998317;28;20026;-64
2022/03/14 09:28:01;;;;;;;7.22;4.85;;;10.90;99.90;;;;;;4995921;28;20030;-64
2022/03/14 09:30:27;;;;;;;5.80;3.22;;;11.30;99.90;;;;;;4996797;28;20114;-64
2022/03/14 09:32:54;;;;;;;4.38;3.00;;;10.80;99.90;;;;;;4996705;28;20383;-64
2022/03/14 09:35:22;;;;;;;5.28;3.22;;;10.40;99.90;;;;;;4994678;28;20145;-64
2022/03/14 09:37:49;;;;;;;6.13;3.30;;;10.20;99.90;;;;;;4993977;28;20066;-64
2022/03/14 09:40:22;;;;;;;4.47;2.70;;;10.30;99.90;;;;;;4996631;28;20104;-64
2022/03/14 09:42:55;;;;;;;6.90;3.88;;;10.50;99.90;;;;;;4996528;28;20384;-65
2022/03/14 09:45:22;;;;;;;4.82;3.28;;;10.50;99.90;;;;;;4995331;28;20044;-63
2022/03/14 09:47:50;;;;;;;7.03;3.92;;;10.60;99.90;;;;;;4996474;28;20080;-64
2022/03/14 09:50:40;;;;;;;6.28;2.78;;;11.10;99.90;;;;;;4993947;28;20022;-64
2022/03/14 09:53:08;;;;;;;8.55;3.03;;;11.00;99.90;;;;;;4976920;28;20092;-64
2022/03/14 09:55:40;;;;;;;4.38;2.80;;;11.20;99.90;;;;;;4997602;28;20539;-64
2022/03/14 09:58:11;;;;;;;5.47;3.13;;;11.00;99.90;;;;;;4997358;28;20057;-64
2022/03/14 10:00:37;;;;;;;8.10;3.83;;;11.10;99.90;;;;;;4996310;28;20096;-64
2022/03/14 10:03:04;;;;;;;5.90;3.30;;;11.20;99.90;;;;;;4996562;28;20022;-64
2022/03/14 10:05:30;;;;;;;8.13;3.70;;;10.80;99.90;;;;;;4994003;28;20041;-64
2022/03/14 10:07:56;;;;;;;6.18;3.20;;;11.10;99.90;;;;;;4992322;28;20023;-64
2022/03/14 10:10:22;;;;;;;6.65;3.63;;;11.00;99.90;;;;;;4997985;28;20666;-64
2022/03/14 10:12:52;;;;;;;7.40;3.33;;;11.20;99.90;;;;;;4996194;28;20038;-64
2022/03/14 10:15:19;;;;;;;5.35;2.70;;;11.50;99.90;;;;;;4995906;28;20042;-62
2022/03/14 10:17:46;;;;;;;5.20;3.13;;;11.30;99.90;;;;;;4995999;28;20067;-64
2022/03/14 10:20:15;;;;;;;6.55;3.30;;;11.10;99.90;;;;;;4992443;28;20034;-63
2022/03/14 10:22:42;;;;;;;7.68;4.75;;;11.20;99.90;;;;;;4994888;28;20022;-64
2022/03/14 10:25:13;;;;;;;5.85;3.45;;;11.10;99.90;;;;;;4995614;28;20534;-63
2022/03/14 10:27:42;;;;;;;6.03;3.45;;;11.10;99.90;;;;;;4995740;28;20085;-63
2022/03/14 10:30:24;;;;;;;5.15;3.55;;;11.00;99.90;;;;;;4995926;28;20034;-64
2022/03/14 10:32:51;;;;;;;7.15;4.25;;;11.30;99.90;;;;;;4995473;28;20491;-62
2022/03/14 10:35:21;;;;;;;5.20;3.25;;;11.30;99.90;;;;;;4991202;28;20034;-61
2022/03/14 10:38:02;;;;;;;6.65;3.47;;;11.10;99.90;;;;;;4994108;28;20022;-62
2022/03/14 10:40:37;;;;;;;8.77;5.47;;;11.20;99.90;;;;;;4996289;28;20058;-62
2022/03/14 10:43:08;;;;;;;9.95;5.05;;;11.20;99.90;;;;;;4993764;28;20534;-63
2022/03/14 10:45:35;;;;;;;6.45;3.50;;;11.30;99.90;;;;;;4992562;28;20040;-62
2022/03/14 10:48:02;;;;;;;6.38;3.15;;;11.60;99.90;;;;;;4995532;28;20033;-63
2022/03/14 10:50:33;;;;;;;8.35;3.75;;;11.60;99.90;;;;;;4993785;28;20034;-63
2022/03/14 10:53:02;;;;;;;5.72;3.33;;;11.80;99.90;;;;;;4991097;28;20113;-61
2022/03/14 10:55:58;;;;;;;6.75;3.38;;;12.00;99.90;;;;;;4996299;28;20557;-63
2022/03/14 10:58:33;;;;;;;6.85;4.10;;;12.30;99.90;;;;;;4995801;28;20042;-63
2022/03/14 11:01:10;;;;;;;7.25;3.75;;;12.30;99.90;;;;;;4994106;28;20092;-61
2022/03/14 11:03:39;;;;;;;8.70;3.50;;;13.00;99.90;;;;;;4993688;28;20026;-61
2022/03/14 11:06:13;;;;;;;5.30;3.20;;;13.20;99.90;;;;;;4994798;28;20034;-60
2022/03/14 11:08:40;;;;;;;5.65;3.50;;;12.70;99.90;;;;;;4995156;28;20100;-61
2022/03/14 11:11:10;;;;;;;5.00;3.22;;;12.70;99.90;;;;;;4991165;28;20023;-60
2022/03/14 11:13:44;;;;;;;5.93;3.40;;;12.90;99.90;;;;;;4995436;28;20411;-63
2022/03/14 11:16:26;;;;;;;6.32;3.08;;;12.60;99.90;;;;;;4996389;28;20084;-62
2022/03/14 11:18:53;;;;;;;7.47;4.28;;;12.50;99.90;;;;;;4994679;28;20496;-63
2022/03/14 11:21:24;;;;;;;10.85;8.63;;;12.50;99.90;;;;;;4993490;28;20185;-62
2022/03/14 11:23:51;;;;;;;4.82;3.17;;;12.50;99.90;;;;;;4993481;28;20109;-62
2022/03/14 11:26:25;;;;;;;7.88;4.65;;;12.50;99.90;;;;;;4992306;28;20030;-62
2022/03/14 11:28:54;;;;;;;6.75;3.60;;;12.40;99.90;;;;;;4992110;28;20109;-62
2022/03/14 11:31:21;;;;;;;7.10;3.40;;;12.30;99.90;;;;;;4996764;28;20555;-61
2022/03/14 11:33:48;;;;;;;6.13;3.30;;;12.30;99.90;;;;;;4994640;28;20402;-62
2022/03/14 11:36:19;;;;;;;5.60;3.38;;;12.30;99.90;;;;;;4994563;28;20536;-61
2022/03/14 11:38:46;;;;;;;5.32;3.90;;;12.50;99.90;;;;;;4994836;28;20041;-62
2022/03/14 11:41:12;;;;;;;5.78;3.50;;;12.60;99.90;;;;;;4989679;28;20043;-61
2022/03/14 11:43:40;;;;;;;5.80;3.30;;;12.60;99.90;;;;;;4995009;28;20065;-62
2022/03/14 11:46:06;;;;;;;4.65;3.30;;;12.60;99.90;;;;;;4991241;28;20061;-62
2022/03/14 11:48:34;;;;;;;7.18;3.50;;;12.50;99.90;;;;;;4990578;28;20061;-62
2022/03/14 11:51:03;;;;;;;7.97;4.00;;;12.50;99.90;;;;;;4988786;28;20034;-61
2022/03/14 11:53:34;;;;;;;6.32;3.83;;;12.70;99.90;;;;;;4991256;28;20553;-62
2022/03/14 11:56:06;;;;;;;5.10;3.40;;;12.80;99.90;;;;;;4991862;28;20093;-61
2022/03/14 11:58:35;;;;;;;6.80;4.00;;;12.80;99.90;;;;;;4990790;28;20101;-61
2022/03/14 12:01:22;;;;;;;7.00;3.28;;;12.70;99.90;;;;;;4991587;28;20034;-62
2022/03/14 12:03:53;;;;;;;7.80;4.78;;;13.00;99.90;;;;;;4989078;28;20034;-62
2022/03/14 12:06:48;;;;;;;7.53;3.78;;;13.10;99.90;;;;;;4994312;28;20045;-61
2022/03/14 12:09:25;;;;;;;5.18;3.50;;;13.10;99.90;;;;;;4956401;28;20039;-63
2022/03/14 12:11:55;;;;;;;5.35;3.50;;;13.20;99.90;;;;;;4957474;28;20038;-63
2022/03/14 12:14:52;;;;;;;4.90;3.42;;;13.10;99.90;;;;;;4955545;28;20035;-63
2022/03/14 12:17:17;;;;;;;8.77;5.35;;;13.00;99.90;;;;;;4954009;28;20034;-63
2022/03/14 12:20:15;;;;;;;7.03;4.28;;;13.40;99.90;;;;;;4956055;28;20047;-64
2022/03/14 12:22:43;;;;;;;10.02;6.22;;;13.20;99.90;;;;;;4937423;29;20062;-64
2022/03/14 12:25:31;;;;;;;6.95;4.15;;;13.30;99.90;;;;;;4957879;28;20038;-62
2022/03/14 12:28:46;;;;;;;7.93;4.10;;;13.50;99.90;;;;;;4957165;28;20427;-63
2022/03/14 12:31:13;;;;;;;;;;;13.40;99.90;;;;;;4958814;28;20503;-64
2022/03/14 12:34:08;;;;;;;6.93;3.55;;;13.30;99.90;;;;;;4958158;28;19917;-63
2022/03/14 12:36:39;;;;;;;7.90;3.67;;;13.30;99.90;;;;;;4957267;28;20023;-63
2022/03/14 12:39:12;;;;;;;6.40;3.47;;;13.20;99.90;;;;;;4956972;28;20035;-64
2022/03/14 12:41:43;;;;;;;6.83;3.80;;;13.20;99.90;;;;;;4955287;28;20042;-64
2022/03/14 12:44:23;;;;;;;5.70;3.60;;;13.20;99.90;;;;;;4953163;28;20122;-63
2022/03/14 12:46:51;;;;;;;5.25;3.17;;;13.10;99.90;;;;;;4972792;28;20506;-63
2022/03/14 12:49:40;;;;;;;7.35;3.70;;;13.20;99.90;;;;;;4997831;28;20105;-63
2022/03/14 12:52:17;;;;;;;6.68;3.90;;;13.30;99.90;;;;;;4994457;28;20038;-64
2022/03/14 12:54:44;;;;;;;8.25;3.70;;;13.40;99.90;;;;;;4997544;28;20034;-64
2022/03/14 12:57:14;;;;;;;8.30;3.60;;;13.40;99.90;;;;;;4997446;28;20034;-63
2022/03/14 12:59:48;;;;;;;7.32;3.83;;;13.30;99.90;;;;;;4995844;28;20034;-64